Terminal Aerodrome Forecast
Issued by NWS Tampa Bay Area, FL

Home | Current Version | Previous Version | Text Only | Print | Product List | Glossary On
Versions: 1 2 3 4 5 6 7 8 9 10 11 12 13 14 15 16
000
FTUS42 KTBW 281124
TAFFMY
TAF
KFMY 281124Z 2812/2912 12005KT P6SM SCT250
      TEMPO 2812/2814 3SM BR BKN003
     FM281700 16008KT P6SM FEW110
     FM290300 11008KT P6SM FEW250=

USA.gov is the U.S. government's official web portal to all federal, state and local government web resources and services.